Toledo Express Airport
KTOL : now visible

Airfield :











YOU CAN JOIN US ON...

 
LOGIN :

Register | Disclaimer

   EN    FR    IT 

 









Legend :    VFR   Marginal VFR   IFR   Intensive IFR   Very Intensive IFR
Visi :
Ceiling :
>= 8 km
>= 3000ft
5 to 8 km
1000 to 3000 ft
1500m to 5 km
500 to 1000 ft
800 to 1500m
200 to 500 ft
< 800m
< 200 ft
Symbols :   Thunderstorms  Fog  Heavy snow  Heavy precipitations  Wind > 20 kt







- Airport Elevation : 683 ft
- IATA code : TOL


KTOL - Toledo Express

CURRENT METAR :
  • 210352Z 00000KT 10SM OVC100 22/19 A3015 RMK AO2 SLP205 T02220189

EXPIRED METARs :
  • 210252Z 11003KT 10SM FEW110 22/19 A3014 RMK AO2 SLP202 T02220194 50007
  • 210152Z 00000KT 10SM CLR 22/19 A3015 RMK AO2 SLP205 T02170194

TAF KTOL
Valid from the 21 at 00:00 until the 22 at 00:00 UTC


202341Z 2100/2124 00000KT P6SM SCT250
FM211000 VRB03KT 6SM BR BKN110
TEMPO 2110/2113 5SM BR
FM211400 23006KT P6SM BKN150
PROB30 2115/2116 4SM -SHRA OVC025
FM212300 21008KT P6SM SCT250
No reported NOTAMs for that airfield.



MET'MAP, your aeronautical weather chart ! - Copyright ORBIFLY December 2007 - Disclaimer

ORBIFLY MET'MAP TEAM :

Programming & Development : Alexandra Zaïnal
Concept & Development : Baudouin d'Aumeries
Co-Development & Prog : Marc-Olivier Méhu
Technical & hardware support : Manuel Goepfert

Contact : metmap@orbifly.com




SOURCES & CREDITS :

   NOAA       Earth
Advisory